Time;durP1;ratioP1;P1;durP2;ratioP2;P2;SDS_P1;SDS_P2;PMS_P1;PMS_P2;Temp;Humidity;BMP_temperature;BMP_pressure;BME280_temperature;BME280_humidity;BME280_pressure;Samples;Min_cycle;Max_cycle;Signal;HPM_P1;HPM_P2
2021/03/06 03:45:07;;;;;;;12.15;5.82;;;2.30;69.90;;;;;;5923100;23;20843;31
2021/03/06 03:47:35;;;;;;;13.73;5.30;;;2.30;69.80;;;;;;4849468;29;20060;-69
2021/03/06 03:50:01;;;;;;;15.13;6.13;;;2.20;69.80;;;;;;4852414;29;20353;-69
2021/03/06 03:52:27;;;;;;;12.65;6.72;;;2.30;69.90;;;;;;4851353;29;20034;-70
2021/03/06 03:54:54;;;;;;;13.47;5.67;;;2.40;69.50;;;;;;4851569;29;20097;-70
2021/03/06 03:57:20;;;;;;;13.35;6.82;;;2.40;69.50;;;;;;4852524;29;20344;-70
2021/03/06 03:59:46;;;;;;;16.80;6.43;;;2.40;69.20;;;;;;4852457;29;20033;-70
2021/03/06 04:02:21;;;;;;;16.52;7.40;;;2.40;69.30;;;;;;4836069;29;20042;-70
2021/03/06 04:04:47;;;;;;;36.83;18.23;;;2.40;69.20;;;;;;4851444;29;20094;-69
2021/03/06 04:07:12;;;;;;;13.20;7.00;;;2.40;69.30;;;;;;4866601;29;20321;-70
2021/03/06 04:09:38;;;;;;;14.63;6.95;;;2.40;69.00;;;;;;4866635;29;20095;-70
2021/03/06 04:12:04;;;;;;;13.73;6.53;;;2.40;69.40;;;;;;4852431;29;20065;-70
2021/03/06 04:14:30;;;;;;;15.05;7.20;;;2.30;69.20;;;;;;4852261;29;20037;-70
2021/03/06 04:16:56;;;;;;;16.98;7.15;;;2.30;69.50;;;;;;4863992;29;20033;-70
2021/03/06 04:19:21;;;;;;;9.20;5.95;;;2.30;69.40;;;;;;4870689;29;20021;-70
2021/03/06 04:21:47;;;;;;;12.40;6.60;;;2.40;69.30;;;;;;4870527;29;20367;-70
2021/03/06 04:24:13;;;;;;;11.23;6.95;;;2.40;68.80;;;;;;4869302;29;20036;-70
2021/03/06 04:26:38;;;;;;;13.13;6.82;;;2.40;69.00;;;;;;4870675;29;20033;-70
2021/03/06 04:29:04;;;;;;;18.35;6.32;;;2.30;69.10;;;;;;4870462;29;20025;-70
2021/03/06 04:31:30;;;;;;;15.25;7.07;;;2.40;69.40;;;;;;4869268;29;20052;-70
2021/03/06 04:33:55;;;;;;;15.05;6.45;;;2.30;68.90;;;;;;4869479;29;20088;-70
2021/03/06 04:36:21;;;;;;;11.77;6.75;;;2.40;68.90;;;;;;4870535;29;20309;-70
2021/03/06 04:38:47;;;;;;;17.02;6.80;;;2.40;68.70;;;;;;4870496;29;20021;-71
2021/03/06 04:41:12;;;;;;;11.98;6.30;;;2.30;68.90;;;;;;4870520;29;20065;-70
2021/03/06 04:43:38;;;;;;;14.57;7.68;;;2.40;69.00;;;;;;4870323;29;20043;-71
2021/03/06 04:46:04;;;;;;;14.98;7.03;;;2.50;68.80;;;;;;4880582;29;20060;-71
2021/03/06 04:48:29;;;;;;;14.18;7.22;;;2.50;68.70;;;;;;4887846;29;20182;-71
2021/03/06 04:50:55;;;;;;;18.13;7.25;;;2.40;68.60;;;;;;4889161;29;20100;-70
2021/03/06 04:53:21;;;;;;;14.07;7.68;;;2.40;68.60;;;;;;4888847;29;20045;-70
2021/03/06 04:55:47;;;;;;;14.57;6.55;;;2.40;68.60;;;;;;4888973;29;20056;-70
2021/03/06 04:58:12;;;;;;;13.60;6.95;;;2.40;68.70;;;;;;4903297;29;20257;-71
2021/03/06 05:00:38;;;;;;;14.40;6.80;;;2.50;68.40;;;;;;4888613;29;20033;-71
2021/03/06 05:03:05;;;;;;;12.15;6.75;;;2.50;68.50;;;;;;4888826;29;20065;-71
2021/03/06 05:05:30;;;;;;;13.50;7.05;;;2.50;68.50;;;;;;4888875;29;20033;-70
2021/03/06 05:07:56;;;;;;;15.30;7.40;;;2.50;68.40;;;;;;4887577;29;20056;-71
2021/03/06 05:10:23;;;;;;;15.40;7.68;;;2.40;68.80;;;;;;4882619;29;20027;-71
2021/03/06 05:12:49;;;;;;;13.38;7.25;;;2.40;68.90;;;;;;4869224;29;20257;-70
2021/03/06 05:15:15;;;;;;;16.85;7.70;;;2.30;69.00;;;;;;4869052;29;20033;-70
2021/03/06 05:17:41;;;;;;;12.82;7.03;;;2.30;68.90;;;;;;4887685;29;20033;-70
2021/03/06 05:20:07;;;;;;;13.38;7.72;;;2.30;69.30;;;;;;4888859;29;20029;-71
2021/03/06 05:22:33;;;;;;;11.83;7.63;;;2.30;69.30;;;;;;4887579;29;20238;-71
2021/03/06 05:24:58;;;;;;;14.30;6.97;;;2.20;69.50;;;;;;4887614;29;20037;-71
2021/03/06 05:27:24;;;;;;;16.02;8.25;;;2.30;69.40;;;;;;4888440;29;20052;-71
2021/03/06 05:29:50;;;;;;;16.83;7.50;;;2.30;69.40;;;;;;4888772;29;20085;-70
2021/03/06 05:32:16;;;;;;;16.95;6.97;;;2.40;69.40;;;;;;4888514;29;20048;-71
2021/03/06 05:34:41;;;;;;;14.45;7.63;;;2.40;69.00;;;;;;4888570;29;20056;-71
2021/03/06 05:37:07;;;;;;;13.80;7.78;;;2.40;68.70;;;;;;4872896;29;20052;-71
2021/03/06 05:39:33;;;;;;;19.95;8.07;;;2.40;69.10;;;;;;4891993;29;20025;-70
2021/03/06 05:41:59;;;;;;;12.60;7.20;;;2.30;69.50;;;;;;4891005;29;20036;-70
2021/03/06 05:44:25;;;;;;;18.30;8.15;;;2.30;69.40;;;;;;4906842;29;20025;-71
2021/03/06 05:46:52;;;;;;;12.50;7.35;;;2.40;69.30;;;;;;4891563;29;20052;-71
2021/03/06 05:49:17;;;;;;;16.42;7.88;;;2.20;69.40;;;;;;4906324;29;20032;-71
2021/03/06 05:51:45;;;;;;;14.77;7.30;;;2.30;69.50;;;;;;4875273;29;20148;-70
2021/03/06 05:54:13;;;;;;;17.35;8.15;;;2.20;69.50;;;;;;4890513;29;20033;-71
2021/03/06 05:56:40;;;;;;;13.63;7.78;;;2.30;69.50;;;;;;4890412;29;20033;-71
2021/03/06 05:59:09;;;;;;;13.48;7.07;;;2.30;69.30;;;;;;4866575;29;20209;-71
2021/03/06 06:01:36;;;;;;;12.10;7.25;;;2.40;69.30;;;;;;4869500;29;20071;-70
2021/03/06 06:04:04;;;;;;;14.68;7.63;;;2.50;69.10;;;;;;4869659;29;20336;-71
2021/03/06 06:06:34;;;;;;;16.55;7.95;;;2.50;69.00;;;;;;4868422;29;20033;-71
2021/03/06 06:09:01;;;;;;;12.57;7.30;;;2.40;69.30;;;;;;4854987;29;20061;-71
2021/03/06 06:11:28;;;;;;;21.92;7.13;;;2.40;69.30;;;;;;4854413;29;20038;-71
2021/03/06 06:14:01;;;;;;;12.40;7.05;;;2.40;69.00;;;;;;4863714;29;20025;-71
2021/03/06 06:16:31;;;;;;;14.95;7.40;;;2.40;69.20;;;;;;4866186;29;20029;-71
2021/03/06 06:18:57;;;;;;;14.43;8.25;;;2.40;69.20;;;;;;4856971;29;20409;-71
2021/03/06 06:21:46;;;;;;;13.60;7.43;;;2.50;69.00;;;;;;4884423;29;20034;-71
2021/03/06 06:24:17;;;;;;;14.38;7.53;;;2.50;68.60;;;;;;4847700;29;20313;-72
2021/03/06 06:26:56;;;;;;;14.48;7.32;;;2.50;69.00;;;;;;4861716;29;20033;-72
2021/03/06 06:29:39;;;;;;;12.70;7.30;;;2.60;69.00;;;;;;4862907;29;20029;-71
2021/03/06 06:32:06;;;;;;;15.93;7.93;;;2.50;68.90;;;;;;4858779;29;20225;-72
2021/03/06 06:34:32;;;;;;;13.18;7.43;;;2.60;68.90;;;;;;4870406;29;20030;-71
2021/03/06 06:36:58;;;;;;;13.38;7.15;;;2.70;68.80;;;;;;4862967;29;20078;-72
2021/03/06 06:39:29;;;;;;;17.70;8.32;;;2.60;68.70;;;;;;4864747;29;20034;-71
2021/03/06 06:42:00;;;;;;;11.98;7.43;;;2.80;68.60;;;;;;4867236;29;20038;-71
2021/03/06 06:44:28;;;;;;;13.65;6.80;;;2.90;68.30;;;;;;4847808;29;20021;-71
2021/03/06 06:46:56;;;;;;;16.48;7.22;;;2.80;67.70;;;;;;4866734;29;20325;-71
2021/03/06 06:49:23;;;;;;;19.95;7.30;;;2.80;67.80;;;;;;4859764;29;20193;-71
2021/03/06 06:52:01;;;;;;;;;;;2.80;68.30;;;;;;4864778;29;20109;-71
2021/03/06 06:54:28;;;;;;;19.98;7.95;;;2.80;67.70;;;;;;4861877;29;19970;-71
2021/03/06 06:57:15;;;;;;;15.43;7.65;;;2.90;68.00;;;;;;4878552;29;20152;-71
2021/03/06 07:00:01;;;;;;;17.33;6.60;;;3.00;67.70;;;;;;4884365;29;20033;-71
2021/03/06 07:02:28;;;;;;;12.35;6.78;;;3.00;67.40;;;;;;4864964;29;20105;-71
2021/03/06 07:04:55;;;;;;;11.90;7.10;;;3.10;67.10;;;;;;4859316;29;20022;-71
2021/03/06 07:07:22;;;;;;;14.57;7.13;;;3.20;67.00;;;;;;4885929;29;20056;-71
2021/03/06 07:10:02;;;;;;;13.98;6.80;;;3.20;66.80;;;;;;4861504;29;20022;-71
2021/03/06 07:12:30;;;;;;;14.90;7.20;;;3.30;66.50;;;;;;4839463;29;20084;-71
2021/03/06 07:14:56;;;;;;;14.10;6.70;;;3.30;65.90;;;;;;4858354;29;20317;-71
2021/03/06 07:17:22;;;;;;;15.05;7.25;;;3.30;65.60;;;;;;4866880;29;20036;-71
2021/03/06 07:19:47;;;;;;;11.85;6.53;;;3.30;66.10;;;;;;4863833;29;20037;-71
2021/03/06 07:22:14;;;;;;;11.25;6.65;;;3.40;66.00;;;;;;4847229;29;20224;-71
2021/03/06 07:24:40;;;;;;;10.83;6.43;;;3.40;65.60;;;;;;4862999;29;20021;-72
2021/03/06 07:27:06;;;;;;;12.82;6.45;;;3.50;65.50;;;;;;4861175;29;20062;-71
2021/03/06 07:29:32;;;;;;;13.68;6.47;;;3.50;65.30;;;;;;4861942;29;20285;-71
2021/03/06 07:32:00;;;;;;;11.50;6.88;;;3.50;65.40;;;;;;4853101;29;20029;-71
2021/03/06 07:34:28;;;;;;;11.35;6.13;;;3.60;64.10;;;;;;4867758;29;20040;-72
2021/03/06 07:37:05;;;;;;;16.80;7.03;;;3.70;64.20;;;;;;4858682;29;20077;-71
2021/03/06 07:39:42;;;;;;;12.50;6.57;;;3.70;64.10;;;;;;4870076;29;20036;-71
2021/03/06 07:42:14;;;;;;;;;;;3.80;63.60;;;;;;4871635;29;20104;-71
2021/03/06 07:44:42;;;;;;;10.82;6.25;;;3.90;63.70;;;;;;4871255;29;19938;-72
2021/03/06 07:47:12;;;;;;;11.32;6.25;;;3.90;63.50;;;;;;4885079;29;20049;-71
2021/03/06 07:49:40;;;;;;;12.82;6.72;;;4.00;64.00;;;;;;4870881;29;20036;-71
2021/03/06 07:52:07;;;;;;;15.55;6.55;;;4.10;63.80;;;;;;4867107;29;20092;-72
2021/03/06 07:54:35;;;;;;;10.90;6.63;;;4.10;62.80;;;;;;4865067;29;20367;-71
2021/03/06 07:57:01;;;;;;;13.40;7.30;;;4.20;62.60;;;;;;4864140;29;20029;-72
2021/03/06 07:59:47;;;;;;;17.08;7.80;;;4.10;62.00;;;;;;4853631;29;20058;-72
2021/03/06 08:02:28;;;;;;;10.70;7.00;;;4.20;62.50;;;;;;4866328;29;20037;-72
2021/03/06 08:04:53;;;;;;;12.95;6.85;;;4.30;62.00;;;;;;4852528;29;20038;-72
2021/03/06 08:07:19;;;;;;;13.18;7.10;;;4.30;61.40;;;;;;4850853;29;20129;-72
2021/03/06 08:10:01;;;;;;;14.23;7.68;;;4.40;61.70;;;;;;4852659;29;20029;-72
2021/03/06 08:12:31;;;;;;;13.00;6.38;;;4.30;61.50;;;;;;4870836;29;20336;-72
2021/03/06 08:14:57;;;;;;;13.77;7.60;;;4.40;61.60;;;;;;4870982;29;20051;-72
2021/03/06 08:17:34;;;;;;;11.70;6.65;;;4.50;61.30;;;;;;4869412;29;20324;-72
2021/03/06 08:20:00;;;;;;;12.75;6.50;;;4.50;60.90;;;;;;4882425;29;20060;-72
2021/03/06 08:22:26;;;;;;;12.07;6.70;;;4.50;61.10;;;;;;4868476;29;20081;-72
2021/03/06 08:24:52;;;;;;;11.75;6.60;;;4.70;60.80;;;;;;4845240;29;20214;-73
2021/03/06 08:27:18;;;;;;;10.80;6.43;;;4.70;61.10;;;;;;4858101;29;20025;-72
2021/03/06 08:29:52;;;;;;;15.30;7.87;;;4.80;59.50;;;;;;4853276;29;20030;-72
2021/03/06 08:32:24;;;;;;;18.35;6.75;;;4.90;60.30;;;;;;4877352;29;20072;-72
2021/03/06 08:34:54;;;;;;;14.70;7.45;;;4.90;58.80;;;;;;4866844;29;20041;-72
2021/03/06 08:37:19;;;;;;;12.50;6.47;;;5.00;59.30;;;;;;4848879;29;20311;-72
2021/03/06 08:39:59;;;;;;;13.43;5.60;;;5.00;58.30;;;;;;4861314;29;20079;-72
2021/03/06 08:42:33;;;;;;;13.82;7.07;;;5.00;57.70;;;;;;4862635;29;20198;-72
2021/03/06 08:45:01;;;;;;;15.95;6.82;;;5.10;58.00;;;;;;4862243;29;20037;-72
2021/03/06 08:47:33;;;;;;;13.57;7.35;;;5.40;58.60;;;;;;4869250;29;20038;-72
2021/03/06 08:50:00;;;;;;;16.65;6.50;;;5.50;57.50;;;;;;4863748;29;20029;-72
2021/03/06 08:52:31;;;;;;;12.32;6.45;;;5.50;56.60;;;;;;4868842;29;20094;-73
2021/03/06 08:54:58;;;;;;;11.73;6.07;;;5.60;56.70;;;;;;4870144;29;20037;-72
2021/03/06 08:57:29;;;;;;;10.27;6.65;;;5.70;56.60;;;;;;4870339;29;20037;-72
2021/03/06 08:59:56;;;;;;;15.90;7.22;;;5.80;57.10;;;;;;4870508;29;20213;-72
2021/03/06 09:02:27;;;;;;;13.10;6.97;;;6.10;56.30;;;;;;4870125;29;20037;-72
2021/03/06 09:05:07;;;;;;;8.80;5.80;;;6.20;55.30;;;;;;4868928;29;20036;-72
2021/03/06 09:07:34;;;;;;;11.25;5.82;;;6.30;54.90;;;;;;4869491;29;20041;-73
2021/03/06 09:10:15;;;;;;;13.45;5.60;;;6.50;53.90;;;;;;4863242;29;20309;-73
2021/03/06 09:12:41;;;;;;;12.23;5.60;;;6.70;53.00;;;;;;4884480;29;20093;-73
2021/03/06 09:15:10;;;;;;;12.30;5.28;;;6.60;51.90;;;;;;4873705;29;20208;-73
2021/03/06 09:17:36;;;;;;;9.82;5.78;;;6.70;52.10;;;;;;4870450;29;20029;-73
2021/03/06 09:20:06;;;;;;;8.95;5.50;;;6.80;51.70;;;;;;4871695;29;20429;-74
2021/03/06 09:22:43;;;;;;;9.25;5.22;;;6.90;51.20;;;;;;4872306;29;20037;-73
2021/03/06 09:25:09;;;;;;;10.48;5.78;;;7.20;51.30;;;;;;4872314;29;20352;-72
2021/03/06 09:27:46;;;;;;;13.93;5.82;;;7.30;51.30;;;;;;4872516;29;20332;-73
2021/03/06 09:30:20;;;;;;;11.77;6.43;;;7.30;50.00;;;;;;4872335;29;20030;-73
2021/03/06 09:32:46;;;;;;;12.40;5.82;;;7.50;50.20;;;;;;4870206;29;20321;-73
2021/03/06 09:35:13;;;;;;;10.90;5.03;;;7.50;50.30;;;;;;4868348;29;20125;-72
2021/03/06 09:37:39;;;;;;;6.78;3.33;;;7.60;49.20;;;;;;4872936;29;20037;-73
2021/03/06 09:40:21;;;;;;;7.68;4.07;;;7.90;47.30;;;;;;4854624;29;20040;-73
2021/03/06 09:42:51;;;;;;;6.88;3.80;;;8.00;45.70;;;;;;4847172;29;20105;-73
2021/03/06 09:45:18;;;;;;;9.43;3.67;;;8.20;47.30;;;;;;4863045;29;20037;-73
2021/03/06 09:47:46;;;;;;;9.82;4.35;;;8.20;46.00;;;;;;4891041;29;20037;-73
2021/03/06 09:50:13;;;;;;;7.40;3.30;;;8.10;44.20;;;;;;4890832;29;20064;-74
2021/03/06 09:52:39;;;;;;;14.70;3.85;;;8.10;43.80;;;;;;4891702;29;20029;-73
2021/03/06 09:55:16;;;;;;;8.23;2.90;;;8.30;45.50;;;;;;4854186;29;20034;-73
2021/03/06 09:57:42;;;;;;;9.43;3.60;;;8.40;43.90;;;;;;4864961;29;20037;-73
2021/03/06 10:00:08;;;;;;;5.70;2.08;;;8.70;44.40;;;;;;4879185;29;20313;-73
2021/03/06 10:02:47;;;;;;;4.15;2.30;;;8.70;41.20;;;;;;4859575;29;20049;-73
2021/03/06 10:05:13;;;;;;;6.13;3.00;;;9.10;42.30;;;;;;4859546;29;20030;-73
2021/03/06 10:07:40;;;;;;;4.38;1.83;;;9.20;42.70;;;;;;4843048;29;20390;-73
2021/03/06 10:10:07;;;;;;;5.97;1.85;;;9.10;39.00;;;;;;4863300;29;20025;-73
2021/03/06 10:12:33;;;;;;;6.30;2.77;;;8.90;39.70;;;;;;4848924;29;20080;-74
2021/03/06 10:14:58;;;;;;;3.05;1.65;;;8.90;40.10;;;;;;4871444;29;20305;-73
2021/03/06 10:17:25;;;;;;;5.22;2.08;;;8.90;38.00;;;;;;4871099;29;20029;-74
2021/03/06 10:19:52;;;;;;;4.15;2.00;;;8.90;38.90;;;;;;4871292;29;20038;-74
2021/03/06 10:22:18;;;;;;;;;;;9.20;39.30;;;;;;4883450;29;20136;-74
2021/03/06 10:24:58;;;;;;;8.70;2.65;;;9.30;38.30;;;;;;4861579;29;19908;-74
2021/03/06 10:27:39;;;;;;;3.20;2.10;;;9.20;39.10;;;;;;4862731;29;20317;-74
2021/03/06 10:30:23;;;;;;;7.63;2.50;;;9.40;38.60;;;;;;4858033;29;20468;-74
2021/03/06 10:32:55;;;;;;;5.88;2.90;;;9.60;38.30;;;;;;4858910;29;20034;-74
2021/03/06 10:35:38;;;;;;;3.75;2.33;;;9.70;37.80;;;;;;4862920;29;20284;-74
2021/03/06 10:38:08;;;;;;;3.65;2.53;;;9.80;36.10;;;;;;4867467;29;20221;-73
2021/03/06 10:40:45;;;;;;;5.03;1.73;;;9.70;35.70;;;;;;4869537;29;20057;-74
2021/03/06 10:43:28;;;;;;;6.45;2.63;;;9.60;35.90;;;;;;4867723;29;20225;-75
2021/03/06 10:45:55;;;;;;;4.40;2.53;;;9.70;36.40;;;;;;4873010;29;20064;-74
2021/03/06 10:48:29;;;;;;;7.70;3.00;;;9.90;37.80;;;;;;4872276;29;20022;-74
2021/03/06 10:50:56;;;;;;;6.93;3.00;;;9.90;36.20;;;;;;4872487;29;20033;-74
2021/03/06 10:53:23;;;;;;;4.93;2.90;;;9.90;37.50;;;;;;4855640;29;20029;-73
2021/03/06 10:55:50;;;;;;;;;;;9.90;37.60;;;;;;4872068;29;20089;-76
2021/03/06 10:58:16;;;;;;;3.83;2.60;;;10.30;37.40;;;;;;4870299;29;20073;-74
2021/03/06 11:00:43;;;;;;;4.40;2.40;;;10.70;35.40;;;;;;4867929;29;20101;-75
2021/03/06 11:03:09;;;;;;;;;;;10.70;34.90;;;;;;4868367;29;20294;-74
2021/03/06 11:05:36;;;;;;;13.40;3.33;;;10.80;34.80;;;;;;4868253;29;19949;-74
2021/03/06 11:08:21;;;;;;;3.88;1.90;;;10.50;35.50;;;;;;4852651;29;20034;-73
2021/03/06 11:10:51;;;;;;;7.55;2.67;;;10.70;36.30;;;;;;4859156;29;20038;-74
2021/03/06 11:13:18;;;;;;;3.80;2.10;;;10.80;34.80;;;;;;4865998;29;20114;-74
2021/03/06 11:15:54;;;;;;;4.45;2.10;;;10.90;34.80;;;;;;4888428;29;20073;-73
2021/03/06 11:18:20;;;;;;;4.35;1.83;;;10.70;32.40;;;;;;4870921;29;20078;-74
2021/03/06 11:20:48;;;;;;;5.63;2.50;;;10.60;33.50;;;;;;4871886;29;20033;-74
2021/03/06 11:23:15;;;;;;;16.52;2.67;;;10.60;33.40;;;;;;4870768;29;20067;-74
2021/03/06 11:25:41;;;;;;;8.40;2.20;;;10.50;32.90;;;;;;4855228;29;20142;-73
2021/03/06 11:28:08;;;;;;;10.18;2.58;;;10.70;33.40;;;;;;4871765;29;20022;-74
2021/03/06 11:30:41;;;;;;;4.10;2.03;;;11.00;33.10;;;;;;4871764;29;20309;-74
2021/03/06 11:33:09;;;;;;;3.92;2.22;;;10.80;32.60;;;;;;4870577;29;20041;-75
2021/03/06 11:35:36;;;;;;;3.80;1.88;;;10.50;33.50;;;;;;4863260;29;20033;-75
2021/03/06 11:38:03;;;;;;;4.55;2.22;;;10.40;32.90;;;;;;4867531;29;20057;-74
2021/03/06 11:40:31;;;;;;;4.05;1.85;;;10.20;33.40;;;;;;4863678;29;20075;-75
2021/03/06 11:42:58;;;;;;;3.92;1.45;;;10.10;33.00;;;;;;4866868;29;20029;-74
2021/03/06 11:45:24;;;;;;;4.07;1.90;;;10.10;33.00;;;;;;4870125;29;20069;-74
2021/03/06 11:47:52;;;;;;;2.72;1.50;;;10.20;32.60;;;;;;4871135;29;20050;-75
2021/03/06 11:50:20;;;;;;;5.20;1.42;;;10.00;33.40;;;;;;4870308;29;20304;-74
2021/03/06 11:52:46;;;;;;;7.10;1.52;;;10.00;32.90;;;;;;4869627;29;20246;-74
2021/03/06 11:55:13;;;;;;;5.50;1.65;;;10.10;32.90;;;;;;4870971;29;20029;-74
2021/03/06 11:57:39;;;;;;;6.93;2.38;;;10.30;32.80;;;;;;4871546;29;20033;-74
2021/03/06 12:00:12;;;;;;;7.35;2.45;;;10.30;33.60;;;;;;4871543;29;20277;-74
2021/03/06 12:02:37;;;;;;;3.38;2.03;;;10.20;33.10;;;;;;4885674;29;20096;-74
2021/03/06 12:05:05;;;;;;;5.95;1.80;;;10.10;34.10;;;;;;4885539;29;20053;-74
2021/03/06 12:07:30;;;;;;;5.20;2.33;;;10.40;35.30;;;;;;4871276;29;20238;-73
2021/03/06 12:09:56;;;;;;;2.70;2.22;;;10.40;32.90;;;;;;4871307;29;20041;-73
2021/03/06 12:12:22;;;;;;;4.20;2.70;;;10.50;31.50;;;;;;4855301;29;20040;-73
2021/03/06 12:14:47;;;;;;;4.90;2.65;;;10.50;32.60;;;;;;4869702;29;20037;-73
2021/03/06 12:17:13;;;;;;;5.60;2.78;;;10.50;33.30;;;;;;4863970;29;20101;-73
2021/03/06 12:19:39;;;;;;;8.57;2.47;;;10.70;33.50;;;;;;4870699;29;20364;-74
2021/03/06 12:22:05;;;;;;;8.27;2.92;;;10.50;32.40;;;;;;4868986;29;20038;-73
2021/03/06 12:24:31;;;;;;;7.28;2.35;;;10.60;34.00;;;;;;4869563;29;20092;-73
2021/03/06 12:26:56;;;;;;;3.25;2.30;;;10.40;31.70;;;;;;4858125;29;20332;-72
2021/03/06 12:29:22;;;;;;;5.07;2.60;;;10.30;32.50;;;;;;4885415;29;20041;-73
2021/03/06 12:31:48;;;;;;;3.58;2.13;;;10.20;33.50;;;;;;4885085;29;20033;-73
2021/03/06 12:34:14;;;;;;;5.90;2.55;;;10.20;34.10;;;;;;4869894;29;20025;-73
2021/03/06 12:36:40;;;;;;;3.40;2.10;;;10.20;32.70;;;;;;4838129;29;20037;-73
2021/03/06 12:39:07;;;;;;;4.22;2.20;;;10.10;33.10;;;;;;4859683;29;20057;-73
2021/03/06 12:41:33;;;;;;;4.72;2.97;;;10.10;34.10;;;;;;4871398;29;20029;-73
2021/03/06 12:43:59;;;;;;;6.25;2.67;;;10.10;34.70;;;;;;4869495;29;20343;-74
2021/03/06 12:46:24;;;;;;;2.90;2.22;;;10.20;35.20;;;;;;4866654;29;20128;-73
2021/03/06 12:48:51;;;;;;;7.00;2.30;;;10.00;33.40;;;;;;4870780;29;20025;-73
2021/03/06 12:51:18;;;;;;;4.30;2.33;;;9.90;33.60;;;;;;4869453;29;20081;-73
2021/03/06 12:53:43;;;;;;;4.10;2.10;;;9.90;33.60;;;;;;4869533;29;20042;-74
2021/03/06 12:56:09;;;;;;;3.10;1.88;;;10.00;33.60;;;;;;4870281;29;20038;-73
2021/03/06 12:58:35;;;;;;;42.67;3.25;;;10.00;32.60;;;;;;4869355;29;20029;-73
2021/03/06 13:01:01;;;;;;;4.28;2.05;;;10.00;32.90;;;;;;4869151;29;20037;-73
2021/03/06 13:03:27;;;;;;;5.07;1.65;;;9.90;31.90;;;;;;4870403;29;20030;-73
2021/03/06 13:05:53;;;;;;;5.32;1.83;;;9.90;31.50;;;;;;4869582;29;20026;-73
2021/03/06 13:08:19;;;;;;;3.95;1.83;;;10.00;32.20;;;;;;4870519;29;20309;-73
2021/03/06 13:10:46;;;;;;;3.80;1.88;;;10.00;31.30;;;;;;4861429;29;20080;-75
2021/03/06 13:13:12;;;;;;;6.43;2.20;;;10.00;32.10;;;;;;4853749;29;20033;-73
2021/03/06 13:15:38;;;;;;;3.22;1.63;;;10.10;31.30;;;;;;4869374;29;20040;-73
2021/03/06 13:18:04;;;;;;;4.10;1.83;;;10.20;30.70;;;;;;4869418;29;20080;-74
2021/03/06 13:20:30;;;;;;;4.63;1.85;;;10.30;30.90;;;;;;4870342;29;20030;-74
2021/03/06 13:22:55;;;;;;;6.45;2.13;;;10.30;30.90;;;;;;4853951;29;20034;-73
2021/03/06 13:25:21;;;;;;;5.72;1.85;;;10.40;31.50;;;;;;4847620;29;20029;-73
2021/03/06 13:27:47;;;;;;;4.57;2.17;;;10.50;31.50;;;;;;4850718;29;20077;-73
2021/03/06 13:30:14;;;;;;;6.32;2.17;;;10.40;30.00;;;;;;4852034;29;20105;-72
2021/03/06 13:32:40;;;;;;;;;;;10.40;29.80;;;;;;4879302;29;20106;-73
2021/03/06 13:35:09;;;;;;;5.00;2.50;;;10.20;29.20;;;;;;4866068;29;19909;-73
2021/03/06 13:37:35;;;;;;;5.95;1.90;;;10.20;30.00;;;;;;4869019;29;20037;-73
2021/03/06 13:40:01;;;;;;;2.83;1.73;;;10.30;30.70;;;;;;4853491;29;20032;-73
2021/03/06 13:42:26;;;;;;;5.68;1.73;;;10.50;30.60;;;;;;4869028;29;20082;-73
2021/03/06 13:44:52;;;;;;;3.45;1.70;;;10.60;30.00;;;;;;4870196;29;20037;-73
2021/03/06 13:47:18;;;;;;;5.97;1.77;;;10.40;30.00;;;;;;4867479;29;20049;-73
2021/03/06 13:49:44;;;;;;;7.18;2.67;;;10.40;30.10;;;;;;4850577;29;20296;-73
2021/03/06 13:52:09;;;;;;;3.90;1.67;;;10.30;30.00;;;;;;4865452;29;20033;-73
2021/03/06 13:54:35;;;;;;;5.10;2.30;;;10.20;30.50;;;;;;4868717;29;20071;-74
2021/03/06 13:57:03;;;;;;;4.05;2.17;;;10.10;31.00;;;;;;4881732;29;20033;-74
2021/03/06 13:59:28;;;;;;;3.88;1.92;;;10.20;31.40;;;;;;4858745;29;20065;-74
2021/03/06 14:01:54;;;;;;;3.20;1.83;;;10.00;31.60;;;;;;4851814;29;20029;-74
2021/03/06 14:04:20;;;;;;;16.10;2.17;;;10.00;31.60;;;;;;4867921;29;20092;-73
2021/03/06 14:06:46;;;;;;;6.63;1.98;;;10.00;32.10;;;;;;4863548;29;20093;-73
2021/03/06 14:09:12;;;;;;;3.78;1.90;;;10.00;31.70;;;;;;4865860;29;20061;-73
2021/03/06 14:11:37;;;;;;;6.38;2.10;;;10.00;32.20;;;;;;4878463;29;20025;-73
2021/03/06 14:14:03;;;;;;;15.90;2.58;;;9.90;31.30;;;;;;4860588;29;20030;-73
2021/03/06 14:16:29;;;;;;;11.18;2.35;;;10.10;31.70;;;;;;4863825;29;20052;-73
2021/03/06 14:18:55;;;;;;;4.20;2.22;;;10.20;30.40;;;;;;4864911;29;20109;-73
2021/03/06 14:21:20;;;;;;;5.28;2.22;;;10.10;29.90;;;;;;4869381;29;20035;-74
2021/03/06 14:23:46;;;;;;;4.00;2.10;;;10.00;30.20;;;;;;4873120;29;20081;-73
2021/03/06 14:26:12;;;;;;;5.35;2.10;;;9.90;30.20;;;;;;4867465;29;20041;-74
2021/03/06 14:28:37;;;;;;;6.47;2.47;;;10.10;30.80;;;;;;4857543;29;20314;-73
2021/03/06 14:31:03;;;;;;;3.55;2.25;;;10.10;31.30;;;;;;4853740;29;20029;-74
2021/03/06 14:33:29;;;;;;;6.05;2.33;;;10.30;31.00;;;;;;4873036;29;20026;-73
2021/03/06 14:35:55;;;;;;;14.68;2.63;;;10.30;31.50;;;;;;4871441;29;20117;-74
2021/03/06 14:38:21;;;;;;;8.23;2.72;;;10.30;31.20;;;;;;4862084;29;20018;-73
2021/03/06 14:40:47;;;;;;;4.75;2.38;;;10.40;31.20;;;;;;4855280;29;20048;-73
2021/03/06 14:43:12;;;;;;;5.07;2.47;;;10.40;31.70;;;;;;4837490;29;20337;-74
2021/03/06 14:45:39;;;;;;;5.25;3.30;;;10.30;31.80;;;;;;4856015;29;20061;-73
2021/03/06 14:48:06;;;;;;;4.05;2.33;;;10.20;31.50;;;;;;4861861;29;20034;-73
2021/03/06 14:50:31;;;;;;;6.13;2.70;;;10.20;31.70;;;;;;4887022;29;20293;-73
2021/03/06 14:52:57;;;;;;;5.60;2.55;;;10.30;31.80;;;;;;4886195;29;20125;-73
2021/03/06 14:55:23;;;;;;;3.88;2.13;;;10.10;31.60;;;;;;4868927;29;20029;-74
2021/03/06 14:57:50;;;;;;;5.82;2.30;;;10.00;30.80;;;;;;4871483;29;20369;-75
2021/03/06 15:00:16;;;;;;;4.60;1.90;;;9.90;31.30;;;;;;4878503;29;20082;-73
2021/03/06 15:02:43;;;;;;;6.72;2.55;;;10.00;31.30;;;;;;4859944;29;20063;-74
2021/03/06 15:05:09;;;;;;;4.17;2.13;;;9.90;31.30;;;;;;4850459;29;20026;-74
2021/03/06 15:07:34;;;;;;;5.90;2.13;;;9.80;31.70;;;;;;4837637;29;20293;-74
2021/03/06 15:10:00;;;;;;;4.75;2.53;;;9.90;31.90;;;;;;4853706;29;20258;-75
2021/03/06 15:12:26;;;;;;;5.40;2.50;;;10.00;31.30;;;;;;4852736;29;20046;-74
2021/03/06 15:14:52;;;;;;;3.28;2.53;;;10.00;31.90;;;;;;4867982;29;20030;-74
2021/03/06 15:17:17;;;;;;;9.13;2.42;;;10.10;31.80;;;;;;4885058;29;20033;-74
2021/03/06 15:19:43;;;;;;;4.25;2.42;;;10.20;32.00;;;;;;4889577;29;20475;-74
2021/03/06 15:22:09;;;;;;;3.65;2.78;;;10.30;32.50;;;;;;4876315;29;20037;-74
2021/03/06 15:24:35;;;;;;;14.93;3.08;;;10.40;32.40;;;;;;4871165;29;20221;-75
2021/03/06 15:27:00;;;;;;;6.43;2.65;;;10.40;32.50;;;;;;4871854;29;20036;-75
2021/03/06 15:29:26;;;;;;;8.95;2.67;;;10.20;31.80;;;;;;4870954;29;20064;-75
2021/03/06 15:31:52;;;;;;;5.47;2.03;;;10.40;33.10;;;;;;4872001;29;20313;-74
2021/03/06 15:34:17;;;;;;;6.47;2.42;;;10.40;32.40;;;;;;4869241;29;20033;-75
2021/03/06 15:36:43;;;;;;;4.45;2.78;;;10.50;32.60;;;;;;4869445;29;20037;-74
2021/03/06 15:39:09;;;;;;;3.83;2.83;;;10.30;32.80;;;;;;4870029;29;20051;-75
2021/03/06 15:41:35;;;;;;;4.40;2.35;;;10.20;32.80;;;;;;4866722;29;20082;-74
2021/03/06 15:44:00;;;;;;;4.53;2.95;;;10.20;33.60;;;;;;4863880;29;20025;-75
2021/03/06 15:46:26;;;;;;;6.63;2.75;;;10.20;33.50;;;;;;4879787;29;20049;-74
2021/03/06 15:48:53;;;;;;;5.50;2.50;;;10.10;33.50;;;;;;4869393;29;20399;-75
2021/03/06 15:51:19;;;;;;;6.47;2.60;;;10.00;33.70;;;;;;4869737;29;20037;-75
2021/03/06 15:53:45;;;;;;;8.88;3.03;;;10.00;34.00;;;;;;4869850;29;20344;-75
2021/03/06 15:56:12;;;;;;;8.13;2.95;;;10.00;34.10;;;;;;4854291;29;20190;-75
2021/03/06 15:58:37;;;;;;;5.87;2.80;;;10.00;34.20;;;;;;4870871;29;20320;-75
2021/03/06 16:01:03;;;;;;;10.30;2.78;;;10.00;33.90;;;;;;4869612;29;20033;-75
2021/03/06 16:03:29;;;;;;;32.70;7.70;;;10.00;34.20;;;;;;4854046;29;20033;-75
2021/03/06 16:05:55;;;;;;;132.43;26.92;;;10.00;34.30;;;;;;4869801;29;20089;-74
2021/03/06 16:08:20;;;;;;;499.10;132.80;;;9.80;34.20;;;;;;4854009;29;20044;-74
2021/03/06 16:10:47;;;;;;;321.52;78.05;;;9.70;34.50;;;;;;4870602;29;20161;-75
2021/03/06 16:13:12;;;;;;;56.63;14.13;;;9.70;34.80;;;;;;4869628;29;20040;-75
2021/03/06 16:15:38;;;;;;;226.07;49.78;;;9.60;34.70;;;;;;4884725;29;20033;-75
2021/03/06 16:18:04;;;;;;;11.77;5.20;;;9.60;35.30;;;;;;4853924;29;20037;-74
2021/03/06 16:20:30;;;;;;;6.55;2.90;;;9.60;35.50;;;;;;4868613;29;20037;-74
2021/03/06 16:22:55;;;;;;;10.75;2.78;;;9.50;35.30;;;;;;4870209;29;20237;-74
2021/03/06 16:25:21;;;;;;;15.45;3.53;;;9.40;35.20;;;;;;4854098;29;20029;-74
2021/03/06 16:27:47;;;;;;;11.70;2.92;;;9.40;36.00;;;;;;4870357;29;20029;-75
2021/03/06 16:30:13;;;;;;;9.70;3.70;;;9.40;35.50;;;;;;4870117;29;20037;-73
2021/03/06 16:32:39;;;;;;;7.95;3.60;;;9.40;35.80;;;;;;4865871;29;20170;-73
2021/03/06 16:35:07;;;;;;;16.48;3.53;;;9.20;35.80;;;;;;4868743;29;20296;-73
2021/03/06 16:37:33;;;;;;;7.63;3.50;;;9.20;36.20;;;;;;4870408;29;20038;-73